sensor_id;sensor_type;location;lat;lon;timestamp;pressure;altitude;pressure_sealevel;temperature;humidity
74893;BME280;63446;56.272;43.922;2022-12-07T00:01:26;102628.22;;;-5.95;63.05
74893;BME280;63446;56.272;43.922;2022-12-07T00:03:54;102624.72;;;-5.94;63.18
74893;BME280;63446;56.272;43.922;2022-12-07T00:06:22;102629.88;;;-5.94;63.04
74893;BME280;63446;56.272;43.922;2022-12-07T00:08:48;102623.09;;;-5.95;62.99
74893;BME280;63446;56.272;43.922;2022-12-07T00:11:16;102630.06;;;-5.97;63.02
74893;BME280;63446;56.272;43.922;2022-12-07T00:13:43;102620.59;;;-5.96;63.03
74893;BME280;63446;56.272;43.922;2022-12-07T00:16:12;102626.69;;;-5.97;63.13
74893;BME280;63446;56.272;43.922;2022-12-07T00:18:39;102618.03;;;-5.96;63.33
74893;BME280;63446;56.272;43.922;2022-12-07T00:21:12;102612.88;;;-5.96;63.10
74893;BME280;63446;56.272;43.922;2022-12-07T00:23:40;102607.84;;;-5.98;63.17
74893;BME280;63446;56.272;43.922;2022-12-07T00:26:09;102609.59;;;-5.98;63.27
74893;BME280;63446;56.272;43.922;2022-12-07T00:28:35;102619.06;;;-5.99;63.14
74893;BME280;63446;56.272;43.922;2022-12-07T00:31:09;102613.19;;;-6.01;63.18
74893;BME280;63446;56.272;43.922;2022-12-07T00:33:36;102620.22;;;-6.03;63.36
74893;BME280;63446;56.272;43.922;2022-12-07T00:36:07;102616.81;;;-6.03;63.10
74893;BME280;63446;56.272;43.922;2022-12-07T00:38:34;102617.84;;;-6.06;63.27
74893;BME280;63446;56.272;43.922;2022-12-07T00:41:03;102611.06;;;-6.07;63.26
74893;BME280;63446;56.272;43.922;2022-12-07T00:43:29;102600.03;;;-6.09;63.33
74893;BME280;63446;56.272;43.922;2022-12-07T00:45:55;102606.09;;;-6.10;63.29
74893;BME280;63446;56.272;43.922;2022-12-07T00:48:22;102613.84;;;-6.10;63.46
74893;BME280;63446;56.272;43.922;2022-12-07T00:50:48;102613.00;;;-6.10;63.44
74893;BME280;63446;56.272;43.922;2022-12-07T00:53:15;102604.56;;;-6.12;63.35
74893;BME280;63446;56.272;43.922;2022-12-07T00:55:42;102612.28;;;-6.12;63.41
74893;BME280;63446;56.272;43.922;2022-12-07T00:58:08;102617.53;;;-6.14;63.42
74893;BME280;63446;56.272;43.922;2022-12-07T01:00:36;102617.63;;;-6.16;63.42
74893;BME280;63446;56.272;43.922;2022-12-07T01:03:04;102620.31;;;-6.17;63.38
74893;BME280;63446;56.272;43.922;2022-12-07T01:05:30;102608.47;;;-6.20;63.36
74893;BME280;63446;56.272;43.922;2022-12-07T01:07:56;102607.84;;;-6.23;63.39
74893;BME280;63446;56.272;43.922;2022-12-07T01:10:22;102607.97;;;-6.25;63.48
74893;BME280;63446;56.272;43.922;2022-12-07T01:12:48;102607.16;;;-6.25;63.43
74893;BME280;63446;56.272;43.922;2022-12-07T01:15:14;102607.34;;;-6.28;63.50
74893;BME280;63446;56.272;43.922;2022-12-07T01:17:40;102610.03;;;-6.30;63.65
74893;BME280;63446;56.272;43.922;2022-12-07T01:20:07;102608.47;;;-6.32;63.46
74893;BME280;63446;56.272;43.922;2022-12-07T01:22:38;102609.50;;;-6.35;63.55
74893;BME280;63446;56.272;43.922;2022-12-07T01:25:05;102615.69;;;-6.37;63.52
74893;BME280;63446;56.272;43.922;2022-12-07T01:27:32;102607.25;;;-6.40;63.56
74893;BME280;63446;56.272;43.922;2022-12-07T01:29:58;102603.22;;;-6.44;63.59
74893;BME280;63446;56.272;43.922;2022-12-07T01:32:24;102616.28;;;-6.47;63.59
74893;BME280;63446;56.272;43.922;2022-12-07T01:34:50;102606.94;;;-6.48;63.68
74893;BME280;63446;56.272;43.922;2022-12-07T01:37:16;102608.75;;;-6.50;63.61
74893;BME280;63446;56.272;43.922;2022-12-07T01:39:42;102605.59;;;-6.53;63.71
74893;BME280;63446;56.272;43.922;2022-12-07T01:42:12;102597.03;;;-6.54;63.71
74893;BME280;63446;56.272;43.922;2022-12-07T01:47:52;102600.66;;;-6.56;63.82
74893;BME280;63446;56.272;43.922;2022-12-07T01:50:20;102599.09;;;-6.59;63.80
74893;BME280;63446;56.272;43.922;2022-12-07T01:52:49;102603.44;;;-6.59;63.68
74893;BME280;63446;56.272;43.922;2022-12-07T01:55:17;102596.84;;;-6.64;63.69
74893;BME280;63446;56.272;43.922;2022-12-07T01:57:49;102609.59;;;-6.62;63.85
74893;BME280;63446;56.272;43.922;2022-12-07T02:00:17;102603.72;;;-6.64;63.79
74893;BME280;63446;56.272;43.922;2022-12-07T02:05:13;102603.00;;;-6.66;63.73
74893;BME280;63446;56.272;43.922;2022-12-07T02:07:39;102605.47;;;-6.65;63.89
74893;BME280;63446;56.272;43.922;2022-12-07T02:10:14;102606.31;;;-6.64;63.82
74893;BME280;63446;56.272;43.922;2022-12-07T02:12:41;102611.44;;;-6.64;63.95
74893;BME280;63446;56.272;43.922;2022-12-07T02:24:15;102607.00;;;-6.62;63.73
74893;BME280;63446;56.272;43.922;2022-12-07T02:29:28;102619.06;;;-6.63;63.64
74893;BME280;63446;56.272;43.922;2022-12-07T02:34:52;102612.28;;;-6.64;63.69
74893;BME280;63446;56.272;43.922;2022-12-07T02:40:06;102603.72;;;-6.64;63.78
74893;BME280;63446;56.272;43.922;2022-12-07T02:42:39;102607.13;;;-6.64;63.61
74893;BME280;63446;56.272;43.922;2022-12-07T02:45:07;102607.13;;;-6.64;63.71
74893;BME280;63446;56.272;43.922;2022-12-07T02:47:34;102614.84;;;-6.64;63.49
74893;BME280;63446;56.272;43.922;2022-12-07T02:50:04;102613.19;;;-6.65;63.42
74893;BME280;63446;56.272;43.922;2022-12-07T02:52:31;102617.50;;;-6.65;63.58
74893;BME280;63446;56.272;43.922;2022-12-07T02:54:57;102612.34;;;-6.65;63.58
74893;BME280;63446;56.272;43.922;2022-12-07T02:57:41;102613.19;;;-6.65;63.53
74893;BME280;63446;56.272;43.922;2022-12-07T03:00:18;102618.44;;;-6.66;63.69
74893;BME280;63446;56.272;43.922;2022-12-07T03:08:01;102628.63;;;-6.65;63.59
74893;BME280;63446;56.272;43.922;2022-12-07T03:10:58;102622.63;;;-6.65;63.51
74893;BME280;63446;56.272;43.922;2022-12-07T03:13:39;102629.44;;;-6.64;63.62
74893;BME280;63446;56.272;43.922;2022-12-07T03:16:23;102630.34;;;-6.65;63.49
74893;BME280;63446;56.272;43.922;2022-12-07T03:18:55;102629.66;;;-6.67;63.54
74893;BME280;63446;56.272;43.922;2022-12-07T03:21:29;102628.00;;;-6.68;63.56
74893;BME280;63446;56.272;43.922;2022-12-07T03:23:58;102622.94;;;-6.70;63.53
74893;BME280;63446;56.272;43.922;2022-12-07T03:26:34;102621.41;;;-6.72;63.64
74893;BME280;63446;56.272;43.922;2022-12-07T03:29:19;102627.69;;;-6.76;63.63
74893;BME280;63446;56.272;43.922;2022-12-07T03:31:53;102625.38;;;-6.81;63.67
74893;BME280;63446;56.272;43.922;2022-12-07T03:34:29;102618.78;;;-6.85;63.61
74893;BME280;63446;56.272;43.922;2022-12-07T03:37:07;102622.50;;;-6.89;63.81
74893;BME280;63446;56.272;43.922;2022-12-07T03:39:40;102616.63;;;-6.91;63.74
74893;BME280;63446;56.272;43.922;2022-12-07T03:42:07;102623.81;;;-6.96;63.79
74893;BME280;63446;56.272;43.922;2022-12-07T03:44:35;102630.63;;;-6.95;63.95
74893;BME280;63446;56.272;43.922;2022-12-07T03:49:55;102628.41;;;-7.01;63.80
74893;BME280;63446;56.272;43.922;2022-12-07T03:57:47;102638.19;;;-7.06;63.88
74893;BME280;63446;56.272;43.922;2022-12-07T04:00:14;102640.13;;;-7.10;63.82
74893;BME280;63446;56.272;43.922;2022-12-07T04:02:41;102638.44;;;-7.11;63.86
74893;BME280;63446;56.272;43.922;2022-12-07T04:05:08;102638.56;;;-7.13;63.76
74893;BME280;63446;56.272;43.922;2022-12-07T04:07:34;102635.28;;;-7.15;63.92
74893;BME280;63446;56.272;43.922;2022-12-07T04:10:00;102643.06;;;-7.16;64.00
74893;BME280;63446;56.272;43.922;2022-12-07T04:12:26;102646.56;;;-7.17;64.03
74893;BME280;63446;56.272;43.922;2022-12-07T04:14:52;102643.25;;;-7.19;64.12
74893;BME280;63446;56.272;43.922;2022-12-07T04:17:18;102648.50;;;-7.21;64.13
74893;BME280;63446;56.272;43.922;2022-12-07T04:19:44;102645.00;;;-7.20;64.14
74893;BME280;63446;56.272;43.922;2022-12-07T04:22:10;102648.38;;;-7.19;64.19
74893;BME280;63446;56.272;43.922;2022-12-07T04:24:36;102642.63;;;-7.23;64.08
74893;BME280;63446;56.272;43.922;2022-12-07T04:27:02;102643.47;;;-7.22;64.20
74893;BME280;63446;56.272;43.922;2022-12-07T04:29:28;102644.28;;;-7.22;64.20
74893;BME280;63446;56.272;43.922;2022-12-07T04:31:56;102646.84;;;-7.22;64.20
74893;BME280;63446;56.272;43.922;2022-12-07T04:34:22;102649.44;;;-7.22;64.22
74893;BME280;63446;56.272;43.922;2022-12-07T04:36:49;102639.34;;;-7.25;64.03
74893;BME280;63446;56.272;43.922;2022-12-07T04:39:29;102640.91;;;-7.22;64.20
74893;BME280;63446;56.272;43.922;2022-12-07T04:41:59;102648.59;;;-7.22;64.27
74893;BME280;63446;56.272;43.922;2022-12-07T04:44:26;102647.75;;;-7.23;64.37
74893;BME280;63446;56.272;43.922;2022-12-07T04:46:53;102648.50;;;-7.21;64.29
74893;BME280;63446;56.272;43.922;2022-12-07T04:49:20;102646.84;;;-7.22;64.32
74893;BME280;63446;56.272;43.922;2022-12-07T04:51:47;102651.88;;;-7.20;64.17
74893;BME280;63446;56.272;43.922;2022-12-07T04:54:15;102650.97;;;-7.19;64.29
74893;BME280;63446;56.272;43.922;2022-12-07T04:56:41;102650.06;;;-7.18;64.33
74893;BME280;63446;56.272;43.922;2022-12-07T04:59:07;102656.09;;;-7.19;64.27
74893;BME280;63446;56.272;43.922;2022-12-07T05:01:33;102649.31;;;-7.20;64.32
74893;BME280;63446;56.272;43.922;2022-12-07T05:04:00;102659.31;;;-7.16;64.37
74893;BME280;63446;56.272;43.922;2022-12-07T05:06:27;102667.84;;;-7.15;64.49
74893;BME280;63446;56.272;43.922;2022-12-07T05:08:52;102666.13;;;-7.15;64.55
74893;BME280;63446;56.272;43.922;2022-12-07T05:11:19;102660.34;;;-7.18;64.21
74893;BME280;63446;56.272;43.922;2022-12-07T05:14:13;102660.97;;;-7.15;64.48
74893;BME280;63446;56.272;43.922;2022-12-07T05:16:42;102669.50;;;-7.14;64.49
74893;BME280;63446;56.272;43.922;2022-12-07T05:19:08;102678.03;;;-7.14;64.43
74893;BME280;63446;56.272;43.922;2022-12-07T05:21:35;102668.56;;;-7.13;64.47
74893;BME280;63446;56.272;43.922;2022-12-07T05:24:02;102666.94;;;-7.14;64.66
74893;BME280;63446;56.272;43.922;2022-12-07T05:26:28;102660.88;;;-7.13;64.62
74893;BME280;63446;56.272;43.922;2022-12-07T05:28:56;102658.28;;;-7.13;64.68
74893;BME280;63446;56.272;43.922;2022-12-07T05:31:23;102670.22;;;-7.12;64.62
74893;BME280;63446;56.272;43.922;2022-12-07T05:33:49;102660.13;;;-7.15;64.54
74893;BME280;63446;56.272;43.922;2022-12-07T05:36:14;102666.81;;;-7.13;64.75
74893;BME280;63446;56.272;43.922;2022-12-07T05:38:41;102666.00;;;-7.13;64.64
74893;BME280;63446;56.272;43.922;2022-12-07T05:41:07;102671.03;;;-7.12;64.67
74893;BME280;63446;56.272;43.922;2022-12-07T05:43:54;102665.91;;;-7.12;64.71
74893;BME280;63446;56.272;43.922;2022-12-07T05:46:22;102663.31;;;-7.12;64.62
74893;BME280;63446;56.272;43.922;2022-12-07T05:48:48;102668.38;;;-7.10;64.58
74893;BME280;63446;56.272;43.922;2022-12-07T05:51:13;102666.63;;;-7.09;64.40
74893;BME280;63446;56.272;43.922;2022-12-07T05:53:39;102658.13;;;-7.10;64.57
74893;BME280;63446;56.272;43.922;2022-12-07T05:56:05;102667.34;;;-7.07;64.61
74893;BME280;63446;56.272;43.922;2022-12-07T05:58:31;102671.50;;;-7.05;64.61
74893;BME280;63446;56.272;43.922;2022-12-07T06:01:15;102667.91;;;-7.02;64.54
74893;BME280;63446;56.272;43.922;2022-12-07T06:03:41;102649.09;;;-7.03;64.47
74893;BME280;63446;56.272;43.922;2022-12-07T06:06:07;102652.38;;;-7.01;64.32
74893;BME280;63446;56.272;43.922;2022-12-07T06:08:32;102649.00;;;-7.01;64.50
74893;BME280;63446;56.272;43.922;2022-12-07T06:10:58;102656.50;;;-6.98;64.50
74893;BME280;63446;56.272;43.922;2022-12-07T06:13:43;102659.91;;;-6.98;64.37
74893;BME280;63446;56.272;43.922;2022-12-07T06:16:08;102655.38;;;-6.94;64.35
74893;BME280;63446;56.272;43.922;2022-12-07T06:18:34;102661.06;;;-6.89;64.32
74893;BME280;63446;56.272;43.922;2022-12-07T06:21:00;102661.59;;;-6.84;64.41
74893;BME280;63446;56.272;43.922;2022-12-07T06:23:26;102670.47;;;-6.75;64.35
74893;BME280;63446;56.272;43.922;2022-12-07T06:25:52;102663.19;;;-6.69;64.21
74893;BME280;63446;56.272;43.922;2022-12-07T06:28:17;102668.84;;;-6.64;64.15
74893;BME280;63446;56.272;43.922;2022-12-07T06:30:43;102667.53;;;-6.56;64.08
74893;BME280;63446;56.272;43.922;2022-12-07T06:33:09;102668.16;;;-6.53;63.96
74893;BME280;63446;56.272;43.922;2022-12-07T06:35:35;102664.34;;;-6.47;63.91
74893;BME280;63446;56.272;43.922;2022-12-07T06:38:00;102661.47;;;-6.43;63.74
74893;BME280;63446;56.272;43.922;2022-12-07T06:40:26;102662.00;;;-6.37;63.61
74893;BME280;63446;56.272;43.922;2022-12-07T06:42:52;102666.84;;;-6.33;63.63
74893;BME280;63446;56.272;43.922;2022-12-07T06:45:18;102663.97;;;-6.28;63.65
74893;BME280;63446;56.272;43.922;2022-12-07T06:47:44;102656.03;;;-6.25;63.64
74893;BME280;63446;56.272;43.922;2022-12-07T06:50:10;102664.38;;;-6.22;63.59
74893;BME280;63446;56.272;43.922;2022-12-07T06:52:35;102662.44;;;-6.18;63.33
74893;BME280;63446;56.272;43.922;2022-12-07T06:55:01;102670.66;;;-6.13;63.33
74893;BME280;63446;56.272;43.922;2022-12-07T06:57:28;102666.25;;;-6.11;63.06
74893;BME280;63446;56.272;43.922;2022-12-07T06:59:54;102668.59;;;-6.08;63.19
74893;BME280;63446;56.272;43.922;2022-12-07T07:02:20;102663.25;;;-6.05;63.17
74893;BME280;63446;56.272;43.922;2022-12-07T07:04:45;102666.31;;;-6.00;63.03
74893;BME280;63446;56.272;43.922;2022-12-07T07:07:11;102671.19;;;-5.95;63.16
74893;BME280;63446;56.272;43.922;2022-12-07T07:09:38;102672.72;;;-5.93;62.84
74893;BME280;63446;56.272;43.922;2022-12-07T07:12:04;102677.63;;;-5.90;62.78
74893;BME280;63446;56.272;43.922;2022-12-07T07:14:29;102676.69;;;-5.89;62.72
74893;BME280;63446;56.272;43.922;2022-12-07T07:16:56;102680.94;;;-5.87;62.64
74893;BME280;63446;56.272;43.922;2022-12-07T07:19:22;102687.59;;;-5.85;62.66
74893;BME280;63446;56.272;43.922;2022-12-07T07:21:47;102688.34;;;-5.83;62.55
74893;BME280;63446;56.272;43.922;2022-12-07T07:24:13;102687.53;;;-5.83;62.37
74893;BME280;63446;56.272;43.922;2022-12-07T07:26:39;102694.00;;;-5.78;62.31
74893;BME280;63446;56.272;43.922;2022-12-07T07:29:05;102685.34;;;-5.77;62.09
74893;BME280;63446;56.272;43.922;2022-12-07T07:31:32;102688.63;;;-5.75;62.11
74893;BME280;63446;56.272;43.922;2022-12-07T07:34:01;102689.25;;;-5.71;62.13
74893;BME280;63446;56.272;43.922;2022-12-07T07:36:26;102692.53;;;-5.69;62.01
74893;BME280;63446;56.272;43.922;2022-12-07T07:38:52;102698.41;;;-5.67;62.10
74893;BME280;63446;56.272;43.922;2022-12-07T07:41:18;102672.97;;;-5.72;62.07
74893;BME280;63446;56.272;43.922;2022-12-07T07:43:44;102686.84;;;-5.61;61.91
74893;BME280;63446;56.272;43.922;2022-12-07T07:46:10;102685.00;;;-5.59;61.91
74893;BME280;63446;56.272;43.922;2022-12-07T07:48:36;102692.63;;;-5.58;61.69
74893;BME280;63446;56.272;43.922;2022-12-07T07:51:06;102689.16;;;-5.57;61.67
74893;BME280;63446;56.272;43.922;2022-12-07T07:53:32;102693.16;;;-5.53;61.70
74893;BME280;63446;56.272;43.922;2022-12-07T07:55:59;102687.88;;;-5.51;61.50
74893;BME280;63446;56.272;43.922;2022-12-07T07:58:25;102685.19;;;-5.50;61.47
74893;BME280;63446;56.272;43.922;2022-12-07T08:00:52;102682.53;;;-5.48;61.38
74893;BME280;63446;56.272;43.922;2022-12-07T08:03:18;102684.97;;;-5.47;61.16
74893;BME280;63446;56.272;43.922;2022-12-07T08:05:44;102685.72;;;-5.45;61.20
74893;BME280;63446;56.272;43.922;2022-12-07T08:08:10;102687.34;;;-5.44;61.15
74893;BME280;63446;56.272;43.922;2022-12-07T08:10:38;102676.09;;;-5.43;61.22
74893;BME280;63446;56.272;43.922;2022-12-07T08:13:04;102684.56;;;-5.41;61.03
74893;BME280;63446;56.272;43.922;2022-12-07T08:15:38;102685.28;;;-5.38;61.08
74893;BME280;63446;56.272;43.922;2022-12-07T08:18:04;102681.66;;;-5.36;61.02
74893;BME280;63446;56.272;43.922;2022-12-07T08:20:31;102678.06;;;-5.33;61.03
74893;BME280;63446;56.272;43.922;2022-12-07T08:22:59;102677.72;;;-5.29;61.00
74893;BME280;63446;56.272;43.922;2022-12-07T08:25:26;102677.53;;;-5.26;61.02
74893;BME280;63446;56.272;43.922;2022-12-07T08:27:52;102682.47;;;-5.23;60.85
74893;BME280;63446;56.272;43.922;2022-12-07T08:30:19;102678.00;;;-5.21;60.88
74893;BME280;63446;56.272;43.922;2022-12-07T08:32:45;102676.88;;;-5.17;60.90
74893;BME280;63446;56.272;43.922;2022-12-07T08:35:12;102670.69;;;-5.14;60.84
74893;BME280;63446;56.272;43.922;2022-12-07T08:37:38;102673.13;;;-5.12;60.80
74893;BME280;63446;56.272;43.922;2022-12-07T08:40:07;102674.69;;;-5.10;60.71
74893;BME280;63446;56.272;43.922;2022-12-07T08:42:33;102672.09;;;-5.10;60.60
74893;BME280;63446;56.272;43.922;2022-12-07T08:45:09;102674.47;;;-5.07;60.55
74893;BME280;63446;56.272;43.922;2022-12-07T08:47:41;102672.72;;;-5.06;60.50
74893;BME280;63446;56.272;43.922;2022-12-07T08:50:09;102669.19;;;-5.05;60.52
74893;BME280;63446;56.272;43.922;2022-12-07T08:52:35;102668.97;;;-5.02;60.51
74893;BME280;63446;56.272;43.922;2022-12-07T08:55:03;102669.59;;;-4.99;60.51
74893;BME280;63446;56.272;43.922;2022-12-07T08:57:30;102678.75;;;-4.95;60.52
74893;BME280;63446;56.272;43.922;2022-12-07T08:59:58;102676.78;;;-4.91;60.58
74893;BME280;63446;56.272;43.922;2022-12-07T09:02:24;102675.81;;;-4.90;60.43
74893;BME280;63446;56.272;43.922;2022-12-07T09:04:50;102672.22;;;-4.87;60.41
74893;BME280;63446;56.272;43.922;2022-12-07T09:07:16;102673.72;;;-4.85;60.50
74893;BME280;63446;56.272;43.922;2022-12-07T09:09:42;102674.47;;;-4.83;60.36
74893;BME280;63446;56.272;43.922;2022-12-07T09:12:08;102668.34;;;-4.82;60.40
74893;BME280;63446;56.272;43.922;2022-12-07T09:14:34;102676.56;;;-4.77;60.32
74893;BME280;63446;56.272;43.922;2022-12-07T09:17:11;102677.31;;;-4.75;60.25
74893;BME280;63446;56.272;43.922;2022-12-07T09:19:38;102680.00;;;-4.76;60.24
74893;BME280;63446;56.272;43.922;2022-12-07T09:22:04;102673.19;;;-4.77;59.90
74893;BME280;63446;56.272;43.922;2022-12-07T09:24:33;102675.06;;;-4.79;59.94
74893;BME280;63446;56.272;43.922;2022-12-07T09:26:58;102676.09;;;-4.82;60.26
74893;BME280;63446;56.272;43.922;2022-12-07T09:29:24;102676.00;;;-4.80;60.25
74893;BME280;63446;56.272;43.922;2022-12-07T09:31:51;102678.25;;;-4.76;60.11
74893;BME280;63446;56.272;43.922;2022-12-07T09:34:17;102677.09;;;-4.72;60.11
74893;BME280;63446;56.272;43.922;2022-12-07T09:36:43;102679.19;;;-4.66;60.17
74893;BME280;63446;56.272;43.922;2022-12-07T09:39:09;102670.22;;;-4.60;60.11
74893;BME280;63446;56.272;43.922;2022-12-07T09:41:39;102682.44;;;-4.51;60.28
74893;BME280;63446;56.272;43.922;2022-12-07T09:44:19;102675.66;;;-4.40;60.11
74893;BME280;63446;56.272;43.922;2022-12-07T09:46:46;102679.22;;;-4.30;59.99
74893;BME280;63446;56.272;43.922;2022-12-07T09:49:16;102680.88;;;-4.18;59.94
74893;BME280;63446;56.272;43.922;2022-12-07T09:51:42;102676.66;;;-4.08;60.00
74893;BME280;63446;56.272;43.922;2022-12-07T09:54:09;102672.56;;;-3.99;59.89
74893;BME280;63446;56.272;43.922;2022-12-07T09:56:37;102670.09;;;-3.89;59.81
74893;BME280;63446;56.272;43.922;2022-12-07T09:59:04;102666.94;;;-3.82;59.70
74893;BME280;63446;56.272;43.922;2022-12-07T10:01:32;102671.41;;;-3.73;59.55
74893;BME280;63446;56.272;43.922;2022-12-07T10:04:11;102667.38;;;-3.65;59.44
74893;BME280;63446;56.272;43.922;2022-12-07T10:06:38;102663.63;;;-3.61;59.25
74893;BME280;63446;56.272;43.922;2022-12-07T10:09:22;102665.59;;;-3.54;59.31
74893;BME280;63446;56.272;43.922;2022-12-07T10:12:11;102661.59;;;-3.47;59.25
74893;BME280;63446;56.272;43.922;2022-12-07T10:14:40;102668.06;;;-3.41;59.31
74893;BME280;63446;56.272;43.922;2022-12-07T10:17:57;102663.34;;;-3.36;59.37
74893;BME280;63446;56.272;43.922;2022-12-07T10:25:21;102651.00;;;-3.21;59.27
74893;BME280;63446;56.272;43.922;2022-12-07T10:30:31;102656.97;;;-3.21;59.35
74893;BME280;63446;56.272;43.922;2022-12-07T10:32:57;102655.09;;;-3.18;59.41
74893;BME280;63446;56.272;43.922;2022-12-07T10:35:29;102648.16;;;-3.18;59.34
74893;BME280;63446;56.272;43.922;2022-12-07T10:37:58;102653.34;;;-3.18;59.26
74893;BME280;63446;56.272;43.922;2022-12-07T10:40:29;102655.22;;;-3.20;59.19
74893;BME280;63446;56.272;43.922;2022-12-07T10:52:13;102658.09;;;-3.46;58.79
74893;BME280;63446;56.272;43.922;2022-12-07T10:54:25;102655.16;;;-3.52;59.00
74893;BME280;63446;56.272;43.922;2022-12-07T11:05:45;102652.47;;;-3.73;59.31
74893;BME280;63446;56.272;43.922;2022-12-07T11:11:09;102649.88;;;-3.84;59.23
74893;BME280;63446;56.272;43.922;2022-12-07T11:13:57;102652.13;;;-3.91;59.27
74893;BME280;63446;56.272;43.922;2022-12-07T11:24:48;102638.47;;;-4.27;59.39
74893;BME280;63446;56.272;43.922;2022-12-07T11:30:08;102640.56;;;-4.43;59.59
74893;BME280;63446;56.272;43.922;2022-12-07T11:33:02;102632.56;;;-4.51;59.74
74893;BME280;63446;56.272;43.922;2022-12-07T11:35:34;102646.16;;;-4.60;59.67
74893;BME280;63446;56.272;43.922;2022-12-07T11:38:52;102637.44;;;-4.71;59.79
74893;BME280;63446;56.272;43.922;2022-12-07T11:41:01;102637.31;;;-4.80;59.84
74893;BME280;63446;56.272;43.922;2022-12-07T11:44:04;102627.03;;;-4.93;59.88
74893;BME280;63446;56.272;43.922;2022-12-07T11:47:20;102628.75;;;-5.05;60.01
74893;BME280;63446;56.272;43.922;2022-12-07T11:49:48;102625.91;;;-5.13;60.08
74893;BME280;63446;56.272;43.922;2022-12-07T11:52:25;102626.47;;;-5.21;60.31
74893;BME280;63446;56.272;43.922;2022-12-07T11:54:54;102632.16;;;-5.28;60.38
74893;BME280;63446;56.272;43.922;2022-12-07T11:57:37;102629.31;;;-5.36;60.23
74893;BME280;63446;56.272;43.922;2022-12-07T12:05:19;102622.84;;;-5.55;60.62
74893;BME280;63446;56.272;43.922;2022-12-07T12:07:57;102637.81;;;-5.60;60.66
74893;BME280;63446;56.272;43.922;2022-12-07T12:10:41;102633.09;;;-5.66;60.80
74893;BME280;63446;56.272;43.922;2022-12-07T12:13:40;102626.81;;;-5.75;60.84
74893;BME280;63446;56.272;43.922;2022-12-07T12:19:02;102642.06;;;-5.84;60.99
74893;BME280;63446;56.272;43.922;2022-12-07T12:21:32;102640.75;;;-5.90;61.09
74893;BME280;63446;56.272;43.922;2022-12-07T12:24:18;102642.03;;;-5.96;61.13
74893;BME280;63446;56.272;43.922;2022-12-07T12:26:56;102643.28;;;-6.01;61.04
74893;BME280;63446;56.272;43.922;2022-12-07T12:29:35;102637.63;;;-6.06;61.24
74893;BME280;63446;56.272;43.922;2022-12-07T12:32:41;102630.50;;;-6.16;61.37
74893;BME280;63446;56.272;43.922;2022-12-07T12:38:26;102637.09;;;-6.24;61.24
74893;BME280;63446;56.272;43.922;2022-12-07T12:40:54;102628.75;;;-6.28;61.37
74893;BME280;63446;56.272;43.922;2022-12-07T12:43:47;102638.53;;;-6.33;61.58
74893;BME280;63446;56.272;43.922;2022-12-07T12:46:38;102630.28;;;-6.38;61.59
74893;BME280;63446;56.272;43.922;2022-12-07T12:51:44;102629.88;;;-6.45;61.60
74893;BME280;63446;56.272;43.922;2022-12-07T12:54:21;102632.78;;;-6.49;61.76
74893;BME280;63446;56.272;43.922;2022-12-07T12:59:42;102633.28;;;-6.57;61.73
74893;BME280;63446;56.272;43.922;2022-12-07T13:04:57;102621.72;;;-6.64;61.67
74893;BME280;63446;56.272;43.922;2022-12-07T13:10:34;102623.25;;;-6.74;61.75
74893;BME280;63446;56.272;43.922;2022-12-07T13:18:43;102615.41;;;-6.85;61.84
74893;BME280;63446;56.272;43.922;2022-12-07T13:26:21;102612.22;;;-6.89;62.18
74893;BME280;63446;56.272;43.922;2022-12-07T13:34:34;102611.59;;;-6.93;62.24
74893;BME280;63446;56.272;43.922;2022-12-07T13:39:45;102608.19;;;-6.93;62.30
74893;BME280;63446;56.272;43.922;2022-12-07T13:42:32;102607.56;;;-6.97;62.41
74893;BME280;63446;56.272;43.922;2022-12-07T13:45:21;102612.81;;;-6.98;62.34
74893;BME280;63446;56.272;43.922;2022-12-07T13:47:52;102607.75;;;-7.00;62.50
74893;BME280;63446;56.272;43.922;2022-12-07T13:50:31;102618.97;;;-7.01;62.43
74893;BME280;63446;56.272;43.922;2022-12-07T13:53:01;102608.69;;;-7.01;62.51
74893;BME280;63446;56.272;43.922;2022-12-07T13:55:28;102605.41;;;-7.03;62.68
74893;BME280;63446;56.272;43.922;2022-12-07T13:57:55;102604.47;;;-7.02;62.64
74893;BME280;63446;56.272;43.922;2022-12-07T14:00:27;102605.47;;;-7.04;62.62
74893;BME280;63446;56.272;43.922;2022-12-07T14:03:22;102608.88;;;-7.04;62.70
74893;BME280;63446;56.272;43.922;2022-12-07T14:06:07;102609.09;;;-7.07;62.54
74893;BME280;63446;56.272;43.922;2022-12-07T14:08:37;102603.22;;;-7.09;62.69
74893;BME280;63446;56.272;43.922;2022-12-07T14:11:04;102606.72;;;-7.10;62.68
74893;BME280;63446;56.272;43.922;2022-12-07T14:13:38;102606.78;;;-7.12;62.68
74893;BME280;63446;56.272;43.922;2022-12-07T14:16:33;102601.03;;;-7.15;62.83
74893;BME280;63446;56.272;43.922;2022-12-07T14:19:03;102607.00;;;-7.15;62.72
74893;BME280;63446;56.272;43.922;2022-12-07T14:21:32;102605.44;;;-7.17;62.79
74893;BME280;63446;56.272;43.922;2022-12-07T14:26:37;102591.22;;;-7.23;62.76
74893;BME280;63446;56.272;43.922;2022-12-07T14:31:52;102591.53;;;-7.27;63.07
74893;BME280;63446;56.272;43.922;2022-12-07T14:34:22;102595.78;;;-7.26;63.00
74893;BME280;63446;56.272;43.922;2022-12-07T14:36:49;102602.53;;;-7.25;63.01
74893;BME280;63446;56.272;43.922;2022-12-07T14:39:15;102596.78;;;-7.29;63.07
74893;BME280;63446;56.272;43.922;2022-12-07T14:41:41;102594.09;;;-7.27;62.98
74893;BME280;63446;56.272;43.922;2022-12-07T14:44:17;102595.03;;;-7.28;63.05
74893;BME280;63446;56.272;43.922;2022-12-07T14:46:44;102606.13;;;-7.28;63.07
74893;BME280;63446;56.272;43.922;2022-12-07T14:49:10;102596.66;;;-7.27;62.87
74893;BME280;63446;56.272;43.922;2022-12-07T14:51:39;102590.81;;;-7.29;62.94
74893;BME280;63446;56.272;43.922;2022-12-07T14:54:15;102601.09;;;-7.29;63.11
74893;BME280;63446;56.272;43.922;2022-12-07T14:56:42;102593.38;;;-7.29;62.93
74893;BME280;63446;56.272;43.922;2022-12-07T14:59:10;102590.00;;;-7.30;63.07